createdAt,value
2022-12-11T00:02:06.512Z,99.99
2022-12-11T00:04:32.977Z,100.00
2022-12-11T00:06:59.391Z,100.00
2022-12-11T00:09:26.090Z,100.00
2022-12-11T00:11:52.674Z,99.78
2022-12-11T00:14:19.276Z,100.00
2022-12-11T00:16:48.063Z,100.00
2022-12-11T00:19:15.146Z,100.00
2022-12-11T00:21:41.477Z,100.00
2022-12-11T00:24:07.858Z,100.00
2022-12-11T00:26:34.172Z,100.00
2022-12-11T00:29:00.534Z,100.00
2022-12-11T00:31:26.990Z,100.00
2022-12-11T00:33:54.676Z,99.77
2022-12-11T00:36:23.651Z,99.47
2022-12-11T00:38:51.179Z,99.49
2022-12-11T00:41:17.990Z,99.35
2022-12-11T00:43:44.772Z,99.44
2022-12-11T00:46:13.167Z,99.54
2022-12-11T00:48:39.603Z,99.42
2022-12-11T00:51:06.407Z,99.42
2022-12-11T00:53:33.007Z,99.45
2022-12-11T00:55:59.431Z,99.93
2022-12-11T00:58:26.072Z,99.61
2022-12-11T01:00:52.407Z,99.38
2022-12-11T01:03:19.078Z,99.67
2022-12-11T01:05:53.712Z,100.00
2022-12-11T01:08:20.658Z,99.52
2022-12-11T01:10:47.472Z,99.77
2022-12-11T01:13:13.994Z,100.00
2022-12-11T01:15:42.819Z,100.00
2022-12-11T01:18:10.734Z,100.00
2022-12-11T01:20:39.292Z,100.00
2022-12-11T01:23:06.101Z,100.00
2022-12-11T01:25:32.905Z,100.00
2022-12-11T01:27:59.541Z,100.00
2022-12-11T01:30:26.095Z,100.00
2022-12-11T01:32:52.920Z,100.00
2022-12-11T01:35:19.802Z,100.00
2022-12-11T01:37:46.399Z,100.00
2022-12-11T01:40:14.912Z,100.00
2022-12-11T01:42:41.550Z,100.00
2022-12-11T01:45:30.737Z,100.00
2022-12-11T01:48:05.379Z,100.00
2022-12-11T01:50:37.320Z,100.00
2022-12-11T01:53:06.919Z,100.00
2022-12-11T01:55:34.458Z,100.00
2022-12-11T01:58:02.643Z,100.00
2022-12-11T02:00:29.321Z,100.00
2022-12-11T02:02:55.678Z,100.00
2022-12-11T02:05:22.023Z,100.00
2022-12-11T02:07:54.465Z,100.00
2022-12-11T02:10:28.947Z,100.00
2022-12-11T02:13:12.272Z,100.00
2022-12-11T02:15:48.319Z,99.94
2022-12-11T02:18:36.565Z,99.83
2022-12-11T02:21:29.112Z,99.75
2022-12-11T02:24:19.078Z,99.97
2022-12-11T02:27:05.855Z,99.51
2022-12-11T02:29:42.442Z,100.00
2022-12-11T02:32:13.866Z,99.78
2022-12-11T02:34:46.987Z,99.35
2022-12-11T02:37:23.166Z,99.67
2022-12-11T02:39:53.902Z,99.28
2022-12-11T02:42:21.658Z,98.75
2022-12-11T02:44:49.477Z,99.04
2022-12-11T02:47:17.852Z,98.20
2022-12-11T02:49:48.235Z,98.08
2022-12-11T02:52:18.755Z,98.13
2022-12-11T02:54:47.080Z,98.22
2022-12-11T02:57:27.880Z,98.17
2022-12-11T02:59:54.512Z,97.74
2022-12-11T03:02:21.261Z,97.55
2022-12-11T03:04:48.353Z,96.89
2022-12-11T03:07:25.977Z,97.11
2022-12-11T03:09:53.192Z,96.93
2022-12-11T03:12:25.212Z,96.62
2022-12-11T03:14:51.704Z,97.07
2022-12-11T03:17:30.526Z,97.25
2022-12-11T03:20:22.319Z,97.00
2022-12-11T03:22:56.845Z,97.20
2022-12-11T03:25:28.246Z,97.08
2022-12-11T03:27:58.696Z,96.88
2022-12-11T03:30:28.380Z,97.59
2022-12-11T03:33:01.108Z,97.29
2022-12-11T03:35:44.142Z,97.58
2022-12-11T03:38:17.676Z,97.28
2022-12-11T03:40:48.950Z,96.81
2022-12-11T03:43:16.242Z,97.19
2022-12-11T03:45:44.693Z,96.69
2022-12-11T03:48:13.380Z,96.62
2022-12-11T03:50:41.491Z,97.21
2022-12-11T03:53:08.605Z,97.00
2022-12-11T03:55:37.832Z,96.81
2022-12-11T03:58:04.511Z,95.82
2022-12-11T04:00:31.551Z,95.80
2022-12-11T04:02:58.079Z,95.61
2022-12-11T04:05:24.403Z,95.02
2022-12-11T04:07:50.842Z,94.46
2022-12-11T04:10:17.302Z,94.79
2022-12-11T04:12:43.817Z,94.72
2022-12-11T04:15:10.834Z,94.94
2022-12-11T04:17:37.553Z,94.74
2022-12-11T04:20:05.599Z,94.71
2022-12-11T04:22:32.090Z,94.20
2022-12-11T04:24:58.768Z,94.45
2022-12-11T04:27:25.579Z,94.35
2022-12-11T04:29:52.116Z,93.93
2022-12-11T04:32:18.493Z,93.83
2022-12-11T04:34:45.023Z,92.85
2022-12-11T04:37:11.338Z,93.13
2022-12-11T04:39:37.642Z,92.04
2022-12-11T04:42:04.246Z,92.97
2022-12-11T04:44:30.661Z,93.50
2022-12-11T04:46:57.071Z,93.09
2022-12-11T04:49:23.395Z,93.62
2022-12-11T04:51:49.746Z,93.45
2022-12-11T04:54:17.694Z,94.16
2022-12-11T04:56:43.998Z,94.02
2022-12-11T04:59:11.403Z,94.07
2022-12-11T05:01:37.744Z,93.71
2022-12-11T05:04:04.264Z,94.49
2022-12-11T05:06:30.626Z,93.34
2022-12-11T05:08:56.974Z,93.30
2022-12-11T05:11:23.604Z,93.48
2022-12-11T05:13:49.987Z,94.12
2022-12-11T05:16:17.252Z,94.05
2022-12-11T05:18:43.934Z,94.02
2022-12-11T05:21:12.730Z,93.83
2022-12-11T05:23:39.781Z,93.90
2022-12-11T05:26:13.076Z,94.07
2022-12-11T05:28:40.235Z,93.49
2022-12-11T05:31:12.589Z,93.39
2022-12-11T05:33:41.417Z,93.17
2022-12-11T05:36:08.598Z,93.59
2022-12-11T05:38:35.487Z,92.87
2022-12-11T05:41:05.606Z,92.74
2022-12-11T05:43:34.224Z,92.44
2022-12-11T05:46:11.005Z,92.38
2022-12-11T05:48:37.932Z,93.02
2022-12-11T05:51:05.802Z,93.64
2022-12-11T05:53:32.810Z,93.51
2022-12-11T05:56:08.231Z,93.46
2022-12-11T05:58:35.356Z,93.09
2022-12-11T06:01:08.628Z,93.84
2022-12-11T06:03:35.349Z,93.67
2022-12-11T06:06:02.814Z,93.22
2022-12-11T06:08:29.773Z,93.96
2022-12-11T06:10:56.276Z,93.45
2022-12-11T06:13:23.001Z,94.01
2022-12-11T06:15:49.920Z,94.07
2022-12-11T06:18:16.397Z,93.86
2022-12-11T06:20:43.091Z,93.08
2022-12-11T06:23:10.857Z,94.52
2022-12-11T06:25:40.567Z,94.02
2022-12-11T06:28:14.807Z,94.04
2022-12-11T06:30:43.715Z,93.29
2022-12-11T06:33:10.334Z,92.91
2022-12-11T06:35:42.075Z,93.05
2022-12-11T06:38:09.977Z,93.20
2022-12-11T06:40:36.330Z,93.42
2022-12-11T06:43:02.806Z,93.75
2022-12-11T06:45:29.364Z,93.41
2022-12-11T06:48:00.448Z,92.83
2022-12-11T06:50:26.935Z,92.85
2022-12-11T06:52:56.503Z,91.18
2022-12-11T06:55:23.289Z,92.15
2022-12-11T06:57:49.892Z,91.15
2022-12-11T07:00:16.754Z,91.62
2022-12-11T07:02:44.401Z,91.74
2022-12-11T07:05:11.477Z,91.91
2022-12-11T07:07:39.471Z,92.83
2022-12-11T07:10:08.527Z,92.64
2022-12-11T07:12:35.924Z,92.69
2022-12-11T07:15:06.897Z,92.22
2022-12-11T07:17:34.493Z,92.19
2022-12-11T07:20:01.221Z,92.46
2022-12-11T07:22:29.223Z,91.95
2022-12-11T07:24:56.087Z,92.06
2022-12-11T07:27:23.416Z,92.02
2022-12-11T07:29:51.484Z,91.49
2022-12-11T07:32:19.640Z,92.12
2022-12-11T07:34:51.558Z,91.90
2022-12-11T07:37:18.847Z,91.81
2022-12-11T07:39:46.536Z,92.32
2022-12-11T07:42:13.513Z,92.22
2022-12-11T07:44:40.394Z,92.06
2022-12-11T07:47:07.061Z,90.84
2022-12-11T07:49:34.848Z,90.88
2022-12-11T07:52:01.387Z,89.28
2022-12-11T07:54:27.876Z,89.85
2022-12-11T07:56:54.665Z,90.51
2022-12-11T07:59:21.376Z,90.88
2022-12-11T08:01:48.209Z,91.64
2022-12-11T08:04:15.181Z,91.11
2022-12-11T08:06:43.937Z,91.66
2022-12-11T08:09:20.408Z,92.13
2022-12-11T08:11:52.106Z,92.67
2022-12-11T08:14:19.540Z,92.79
2022-12-11T08:16:49.552Z,92.15
2022-12-11T08:19:16.757Z,91.97
2022-12-11T08:24:26.217Z,91.56
2022-12-11T08:26:52.853Z,91.80
2022-12-11T08:29:19.575Z,92.02
2022-12-11T08:31:46.376Z,91.73
2022-12-11T08:34:12.955Z,92.33
2022-12-11T08:36:40.066Z,91.83
2022-12-11T08:39:07.560Z,91.85
2022-12-11T08:41:34.252Z,91.50
2022-12-11T08:44:00.735Z,92.06
2022-12-11T08:49:11.887Z,91.64
2022-12-11T08:51:38.981Z,90.15
2022-12-11T08:54:06.121Z,91.29
2022-12-11T08:56:33.221Z,91.53
2022-12-11T08:59:03.601Z,91.15
2022-12-11T09:01:30.926Z,91.01
2022-12-11T09:03:59.477Z,91.21
2022-12-11T09:06:28.843Z,91.57
2022-12-11T09:11:41.617Z,90.36
2022-12-11T09:14:08.404Z,91.20
2022-12-11T09:16:36.637Z,91.09
2022-12-11T09:19:03.674Z,91.03
2022-12-11T09:21:30.292Z,90.58
2022-12-11T09:23:59.420Z,90.45
2022-12-11T09:26:28.509Z,90.11
2022-12-11T09:28:55.203Z,90.83
2022-12-11T09:31:21.576Z,90.21
2022-12-11T09:33:47.923Z,90.23
2022-12-11T09:36:14.269Z,89.88
2022-12-11T09:38:41.405Z,89.90
2022-12-11T09:41:29.415Z,90.48
2022-12-11T09:44:01.861Z,90.60
2022-12-11T09:46:33.796Z,90.84
2022-12-11T09:49:03.416Z,91.05
2022-12-11T09:52:03.719Z,90.96
2022-12-11T09:54:30.379Z,90.76
2022-12-11T09:57:17.124Z,90.51
2022-12-11T10:00:19.785Z,90.92
2022-12-11T10:02:55.234Z,91.39
2022-12-11T10:05:49.728Z,90.98
2022-12-11T10:08:30.520Z,91.25
2022-12-11T10:11:23.781Z,91.42
2022-12-11T10:14:06.009Z,91.58
2022-12-11T10:16:38.976Z,91.97
2022-12-11T10:19:06.057Z,91.06
2022-12-11T10:21:40.080Z,91.44
2022-12-11T10:25:07.496Z,91.40
2022-12-11T10:27:20.926Z,91.66
2022-12-11T10:29:52.954Z,91.38
2022-12-11T10:32:24.931Z,91.75
2022-12-11T10:35:01.715Z,91.75
2022-12-11T10:37:28.303Z,91.33
2022-12-11T10:39:54.744Z,91.29
2022-12-11T10:42:22.771Z,91.43
2022-12-11T10:45:04.404Z,91.27
2022-12-11T10:47:30.823Z,91.37
2022-12-11T10:50:02.012Z,91.04
2022-12-11T10:52:42.612Z,91.01
2022-12-11T10:55:30.366Z,90.80
2022-12-11T10:58:00.665Z,91.22
2022-12-11T11:00:38.296Z,91.22
2022-12-11T11:03:22.751Z,90.60
2022-12-11T11:05:49.735Z,91.13
2022-12-11T11:08:21.820Z,91.12
2022-12-11T11:10:52.512Z,91.03
2022-12-11T11:13:21.880Z,91.55
2022-12-11T11:15:49.274Z,91.08
2022-12-11T11:18:28.736Z,91.19
2022-12-11T11:20:55.516Z,90.95
2022-12-11T11:23:23.755Z,90.57
2022-12-11T11:25:56.030Z,89.96
2022-12-11T11:28:29.454Z,90.47
2022-12-11T11:31:08.794Z,90.17
2022-12-11T11:33:37.510Z,90.14
2022-12-11T11:36:07.537Z,90.42
2022-12-11T11:39:06.022Z,89.46
2022-12-11T11:42:01.770Z,90.71
2022-12-11T11:44:34.732Z,90.38
2022-12-11T11:47:10.856Z,89.88
2022-12-11T11:49:55.971Z,89.88
2022-12-11T11:52:40.443Z,90.30
2022-12-11T11:55:42.490Z,89.98
2022-12-11T11:58:19.883Z,90.41
2022-12-11T12:00:46.864Z,89.97
2022-12-11T12:03:16.882Z,90.31
2022-12-11T12:05:48.919Z,90.04
2022-12-11T12:09:06.479Z,90.68
2022-12-11T12:11:49.284Z,89.65
2022-12-11T12:17:31.032Z,89.57
2022-12-11T12:20:00.240Z,90.47
2022-12-11T12:22:52.347Z,90.76
2022-12-11T12:25:31.481Z,90.38
2022-12-11T12:28:12.557Z,90.30
2022-12-11T12:31:13.028Z,90.75
2022-12-11T12:34:02.531Z,90.41
2022-12-11T12:36:49.356Z,90.02
2022-12-11T12:39:24.209Z,90.77
2022-12-11T12:42:11.232Z,90.02
2022-12-11T12:45:01.817Z,89.78
2022-12-11T12:47:32.588Z,90.83
2022-12-11T12:50:01.126Z,90.86
2022-12-11T12:52:37.672Z,89.65
2022-12-11T12:55:13.460Z,90.08
2022-12-11T12:57:43.994Z,89.99
2022-12-11T13:00:13.486Z,90.08
2022-12-11T13:02:50.838Z,90.81
2022-12-11T13:05:24.802Z,90.74
2022-12-11T13:08:04.764Z,91.04
2022-12-11T13:10:38.672Z,90.50
2022-12-11T13:13:25.495Z,90.36
2022-12-11T13:15:51.901Z,90.50
2022-12-11T13:18:39.164Z,90.53
2022-12-11T13:21:29.874Z,89.71
2022-12-11T13:24:14.993Z,91.04
2022-12-11T13:26:42.302Z,90.75
2022-12-11T13:29:32.407Z,90.44
2022-12-11T13:32:04.928Z,90.92
2022-12-11T13:34:33.311Z,90.06
2022-12-11T13:37:01.423Z,90.71
2022-12-11T13:39:31.818Z,90.61
2022-12-11T13:42:02.484Z,91.13
2022-12-11T13:44:39.355Z,90.96
2022-12-11T13:47:10.582Z,90.75
2022-12-11T13:49:41.195Z,90.26
2022-12-11T13:52:15.817Z,90.32
2022-12-11T13:54:47.940Z,90.24
2022-12-11T13:57:20.324Z,90.58
2022-12-11T13:59:53.297Z,91.06
2022-12-11T14:02:35.230Z,90.72
2022-12-11T14:05:05.716Z,91.07
2022-12-11T14:07:36.029Z,91.19
2022-12-11T14:10:07.682Z,91.05
2022-12-11T14:12:34.352Z,91.42
2022-12-11T14:15:03.982Z,91.28
2022-12-11T14:17:32.806Z,90.93
2022-12-11T14:20:03.123Z,91.72
2022-12-11T14:22:30.723Z,92.07
2022-12-11T14:25:00.205Z,91.42
2022-12-11T14:27:27.693Z,91.06
2022-12-11T14:29:55.117Z,91.15
2022-12-11T14:32:31.534Z,91.78
2022-12-11T14:34:58.840Z,90.89
2022-12-11T14:37:26.195Z,90.74
2022-12-11T14:40:10.319Z,91.19
2022-12-11T14:42:43.693Z,91.10
2022-12-11T14:45:20.815Z,91.42
2022-12-11T14:47:47.523Z,90.98
2022-12-11T14:50:22.619Z,91.00
2022-12-11T14:52:54.203Z,90.87
2022-12-11T14:55:34.802Z,90.71
2022-12-11T14:58:17.629Z,90.80
2022-12-11T15:00:44.014Z,90.77
2022-12-11T15:03:10.340Z,90.34
2022-12-11T15:05:50.109Z,90.93
2022-12-11T15:08:25.665Z,91.32
2022-12-11T15:10:58.383Z,90.83
2022-12-11T15:13:25.301Z,90.75
2022-12-11T15:15:54.349Z,90.98
2022-12-11T15:18:24.382Z,90.70
2022-12-11T15:20:53.479Z,91.06
2022-12-11T15:23:20.068Z,90.35
2022-12-11T15:25:55.359Z,90.91
2022-12-11T15:28:34.795Z,89.98
2022-12-11T15:31:04.936Z,90.05
2022-12-11T15:33:34.531Z,90.82
2022-12-11T15:36:04.707Z,90.98
2022-12-11T15:38:40.236Z,90.87
2022-12-11T15:41:13.559Z,91.22
2022-12-11T15:43:40.379Z,91.63
2022-12-11T15:46:06.917Z,91.90
2022-12-11T15:48:33.772Z,91.20
2022-12-11T15:51:00.306Z,91.35
2022-12-11T15:53:26.657Z,91.44
2022-12-11T15:55:53.606Z,90.84
2022-12-11T15:58:22.338Z,90.84
2022-12-11T16:00:48.996Z,91.08
2022-12-11T16:03:17.673Z,91.25
2022-12-11T16:05:45.434Z,90.93
2022-12-11T16:08:17.284Z,91.45
2022-12-11T16:10:44.869Z,91.51
2022-12-11T16:13:12.243Z,90.45
2022-12-11T16:15:41.108Z,91.76
2022-12-11T16:18:12.858Z,91.87
2022-12-11T16:20:40.383Z,91.77
2022-12-11T16:23:08.249Z,91.39
2022-12-11T16:25:37.844Z,90.88
2022-12-11T16:28:05.015Z,90.43
2022-12-11T16:30:31.575Z,90.22
2022-12-11T16:32:57.967Z,90.56
2022-12-11T16:35:24.284Z,89.56
2022-12-11T16:37:54.140Z,90.12
2022-12-11T16:40:21.234Z,90.96
2022-12-11T16:42:48.172Z,90.38
2022-12-11T16:45:23.101Z,90.47
2022-12-11T16:47:49.564Z,90.20
2022-12-11T16:50:17.158Z,89.82
2022-12-11T16:52:45.482Z,90.41
2022-12-11T16:55:13.100Z,90.21
2022-12-11T16:57:39.939Z,90.57
2022-12-11T17:00:08.551Z,90.61
2022-12-11T17:02:35.912Z,90.47
2022-12-11T17:05:02.550Z,89.53
2022-12-11T17:07:29.189Z,90.28
2022-12-11T17:09:55.563Z,90.45
2022-12-11T17:12:22.085Z,90.72
2022-12-11T17:14:48.522Z,91.49
2022-12-11T17:17:14.823Z,90.93
2022-12-11T17:19:41.403Z,91.40
2022-12-11T17:22:07.750Z,91.49
2022-12-11T17:24:34.091Z,91.25
2022-12-11T17:27:00.423Z,91.54
2022-12-11T17:29:29.229Z,91.11
2022-12-11T17:31:55.639Z,91.14
2022-12-11T17:34:21.974Z,91.68
2022-12-11T17:36:48.289Z,91.22
2022-12-11T17:39:14.919Z,92.01
2022-12-11T17:41:41.293Z,91.84
2022-12-11T17:44:07.660Z,92.33
2022-12-11T17:46:34.315Z,91.99
2022-12-11T17:49:03.115Z,92.44
2022-12-11T17:51:29.566Z,91.94
2022-12-11T17:53:56.088Z,91.93
2022-12-11T17:56:23.214Z,91.45
2022-12-11T17:58:49.788Z,91.54
2022-12-11T18:01:16.338Z,91.50
2022-12-11T18:03:42.769Z,91.58
2022-12-11T18:06:13.129Z,90.89
2022-12-11T18:08:39.788Z,91.33
2022-12-11T18:11:13.130Z,90.86
2022-12-11T18:13:40.116Z,89.97
2022-12-11T18:16:12.227Z,89.80
2022-12-11T18:18:39.525Z,87.45
2022-12-11T18:21:06.134Z,87.42
2022-12-11T18:23:33.145Z,88.15
2022-12-11T18:25:59.653Z,88.07
2022-12-11T18:28:26.120Z,86.60
2022-12-11T18:30:52.501Z,87.21
2022-12-11T18:33:18.892Z,86.72
2022-12-11T18:35:45.421Z,87.45
2022-12-11T18:38:12.277Z,87.28
2022-12-11T18:40:38.743Z,86.96
2022-12-11T18:43:05.133Z,85.79
2022-12-11T18:45:34.715Z,85.55
2022-12-11T18:48:01.495Z,86.28
2022-12-11T18:50:27.832Z,85.49
2022-12-11T18:52:55.573Z,86.34
2022-12-11T18:55:22.069Z,86.07
2022-12-11T18:57:48.675Z,85.01
2022-12-11T19:00:15.695Z,84.26
2022-12-11T19:02:42.706Z,84.37
2022-12-11T19:05:10.472Z,84.42
2022-12-11T19:07:38.029Z,85.17
2022-12-11T19:10:04.962Z,84.73
2022-12-11T19:12:31.293Z,84.57
2022-12-11T19:14:59.063Z,84.48
2022-12-11T19:17:25.587Z,85.00
2022-12-11T19:19:51.938Z,84.86
2022-12-11T19:22:18.244Z,84.23
2022-12-11T19:24:44.589Z,83.91
2022-12-11T19:27:13.732Z,84.41
2022-12-11T19:29:40.407Z,84.70
2022-12-11T19:32:07.330Z,84.56
2022-12-11T19:34:33.854Z,84.10
2022-12-11T19:37:00.218Z,85.10
2022-12-11T19:39:26.886Z,85.46
2022-12-11T19:41:53.233Z,84.64
2022-12-11T19:44:20.540Z,84.68
2022-12-11T19:46:47.165Z,85.54
2022-12-11T19:49:13.734Z,85.02
2022-12-11T19:51:45.095Z,84.87
2022-12-11T19:54:14.754Z,84.54
2022-12-11T19:56:41.271Z,84.36
2022-12-11T19:59:09.668Z,84.86
2022-12-11T20:01:37.637Z,85.45
2022-12-11T20:04:08.123Z,85.45
2022-12-11T20:06:37.546Z,84.64
2022-12-11T20:09:06.415Z,85.20
2022-12-11T20:11:33.428Z,84.90
2022-12-11T20:13:59.997Z,84.99
2022-12-11T20:16:46.164Z,85.02
2022-12-11T20:19:12.889Z,84.61
2022-12-11T20:21:40.597Z,85.77
2022-12-11T20:24:09.087Z,85.31
2022-12-11T20:26:35.769Z,85.38
2022-12-11T20:29:03.697Z,86.11
2022-12-11T20:31:30.147Z,85.74
2022-12-11T20:33:57.092Z,85.76
2022-12-11T20:36:24.718Z,85.91
2022-12-11T20:38:51.635Z,85.96
2022-12-11T20:41:23.500Z,86.31
2022-12-11T20:43:50.814Z,85.57
2022-12-11T20:46:17.914Z,86.88
2022-12-11T20:48:45.073Z,86.58
2022-12-11T20:51:13.494Z,85.64
2022-12-11T20:53:40.797Z,86.11
2022-12-11T20:56:16.663Z,86.82
2022-12-11T20:58:43.832Z,85.87
2022-12-11T21:01:19.905Z,85.17
2022-12-11T21:03:47.358Z,85.04
2022-12-11T21:06:21.188Z,85.10
2022-12-11T21:08:47.763Z,86.06
2022-12-11T21:11:14.255Z,85.89
2022-12-11T21:13:40.733Z,85.62
2022-12-11T21:16:09.340Z,85.71
2022-12-11T21:18:35.722Z,84.91
2022-12-11T21:21:02.262Z,85.81
2022-12-11T21:23:28.776Z,85.40
2022-12-11T21:25:55.305Z,85.33
2022-12-11T21:28:21.835Z,86.06
2022-12-11T21:30:48.249Z,85.79
2022-12-11T21:33:14.830Z,86.33
2022-12-11T21:35:41.284Z,85.52
2022-12-11T21:38:07.870Z,85.33
2022-12-11T21:40:34.373Z,85.97
2022-12-11T21:43:00.693Z,85.73
2022-12-11T21:48:13.822Z,87.02
2022-12-11T21:50:40.877Z,87.59
2022-12-11T21:53:07.276Z,87.96
2022-12-11T21:55:33.583Z,87.83
2022-12-11T21:58:00.088Z,87.58
2022-12-11T22:00:26.648Z,87.79
2022-12-11T22:02:52.991Z,87.54
2022-12-11T22:05:19.551Z,87.56
2022-12-11T22:07:45.996Z,88.11
2022-12-11T22:10:12.442Z,88.50
2022-12-11T22:12:38.783Z,88.69
2022-12-11T22:15:05.879Z,88.48
2022-12-11T22:17:32.215Z,89.01
2022-12-11T22:19:58.527Z,88.64
2022-12-11T22:22:25.102Z,88.84
2022-12-11T22:24:52.872Z,88.84
2022-12-11T22:27:23.720Z,88.93
2022-12-11T22:29:50.473Z,88.53
2022-12-11T22:32:17.014Z,88.51
2022-12-11T22:34:43.475Z,89.42
2022-12-11T22:37:09.864Z,89.10
2022-12-11T22:39:36.163Z,88.99
2022-12-11T22:42:02.693Z,89.06
2022-12-11T22:44:29.005Z,89.12
2022-12-11T22:46:55.356Z,89.40
2022-12-11T22:49:21.682Z,90.08
2022-12-11T22:51:48.468Z,90.04
2022-12-11T22:54:14.863Z,90.37
2022-12-11T22:56:41.454Z,90.34
2022-12-11T22:59:07.807Z,90.27
2022-12-11T23:01:34.351Z,90.57
2022-12-11T23:04:00.705Z,91.01
2022-12-11T23:06:27.121Z,90.78
2022-12-11T23:08:57.565Z,90.16
2022-12-11T23:11:30.827Z,90.32
2022-12-11T23:13:57.508Z,90.01
2022-12-11T23:16:25.925Z,90.71
2022-12-11T23:18:53.584Z,90.18
2022-12-11T23:21:20.384Z,90.57
2022-12-11T23:23:46.710Z,90.46
2022-12-11T23:26:14.213Z,90.51
2022-12-11T23:28:40.997Z,90.49
2022-12-11T23:31:08.395Z,90.48
2022-12-11T23:33:34.811Z,90.50
2022-12-11T23:36:01.140Z,89.96
2022-12-11T23:38:27.728Z,90.33
2022-12-11T23:40:54.404Z,90.25
2022-12-11T23:43:20.863Z,90.32
2022-12-11T23:45:47.259Z,90.37
2022-12-11T23:48:14.160Z,90.04
2022-12-11T23:50:41.887Z,90.27
2022-12-11T23:53:08.544Z,90.20
2022-12-11T23:55:35.430Z,89.94
2022-12-11T23:58:01.771Z,89.50
